Terminal Aerodrome Forecast
Issued by NWS Tulsa, OK

Home | Current Version | Previous Version | Text Only | Print | Product List | Glossary On
Versions: 1 2 3 4 5 6 7 8 9 10 11 12
399
FTUS44 KTSA 271120
TAFFSM
TAF
KFSM 271120Z 2712/2812 05003KT P6SM BKN250
     FM271500 22008KT P6SM SCT050 BKN250
     FM280000 14006KT P6SM BKN100 PROB30 2803/2809 4SM -TSRA
      BKN040CB
     FM280900 32004KT P6SM SCT015 OVC040=

USA.gov is the U.S. government's official web portal to all federal, state and local government web resources and services.